Time;durP1;ratioP1;P1;durP2;ratioP2;P2;SDS_P1;SDS_P2;PMS_P1;PMS_P2;Temp;Humidity;BMP_temperature;BMP_pressure;BME280_temperature;BME280_humidity;BME280_pressure;Samples;Min_cycle;Max_cycle;Signal;HPM_P1;HPM_P2
2022/07/22 00:01:03;;;;;;;7.40;3.28;;;15.30;91.70;;;;;;5071894;28;20063;-53
2022/07/22 00:03:30;;;;;;;8.95;3.08;;;15.30;91.60;;;;;;5054700;28;20035;-53
2022/07/22 00:06:01;;;;;;;7.50;3.03;;;15.30;91.60;;;;;;5072049;28;20032;-54
2022/07/22 00:08:31;;;;;;;9.35;2.92;;;15.20;91.60;;;;;;5072140;28;20029;-52
2022/07/22 00:10:57;;;;;;;8.43;3.22;;;15.20;91.60;;;;;;5071984;28;20020;-50
2022/07/22 00:13:24;;;;;;;6.35;3.63;;;15.30;91.60;;;;;;5072031;28;20408;-53
2022/07/22 00:15:53;;;;;;;14.95;3.20;;;15.20;91.50;;;;;;5071888;28;20442;-53
2022/07/22 00:18:19;;;;;;;11.73;3.03;;;15.20;91.40;;;;;;5071953;28;20043;-53
2022/07/22 00:20:48;;;;;;;18.15;3.55;;;15.20;91.30;;;;;;5054399;28;20029;-51
2022/07/22 00:23:16;;;;;;;12.23;4.17;;;15.30;91.30;;;;;;5071440;28;20034;-53
2022/07/22 00:25:43;;;;;;;10.68;4.07;;;15.30;91.20;;;;;;5071832;28;20392;-50
2022/07/22 00:28:10;;;;;;;13.40;4.13;;;15.30;91.30;;;;;;5071661;28;20017;-50
2022/07/22 00:30:36;;;;;;;11.05;3.75;;;15.40;91.40;;;;;;5071670;28;20441;-49
2022/07/22 00:33:06;;;;;;;11.02;4.50;;;15.40;91.50;;;;;;5071682;28;20043;-49
2022/07/22 00:35:33;;;;;;;12.50;4.43;;;15.40;91.60;;;;;;5053083;28;20405;-48
2022/07/22 00:38:00;;;;;;;15.35;4.10;;;15.40;91.60;;;;;;5053613;28;20109;-49
2022/07/22 00:40:27;;;;;;;18.60;5.25;;;15.40;91.70;;;;;;5053404;28;20120;-53
2022/07/22 00:42:53;;;;;;;13.60;4.13;;;15.40;91.70;;;;;;5053792;28;20449;-51
2022/07/22 00:45:21;;;;;;;14.82;4.40;;;15.40;91.80;;;;;;5071122;28;20021;-53
2022/07/22 00:47:47;;;;;;;11.38;4.50;;;15.40;91.90;;;;;;5053947;28;20434;-50
2022/07/22 00:50:14;;;;;;;13.57;4.57;;;15.40;91.90;;;;;;5053539;28;20028;-51
2022/07/22 00:52:44;;;;;;;19.48;4.82;;;15.40;91.90;;;;;;5071417;28;20036;-51
2022/07/22 00:55:09;;;;;;;13.75;4.22;;;15.40;92.00;;;;;;5053697;28;20107;-53
2022/07/22 00:57:42;;;;;;;12.30;4.20;;;15.40;92.00;;;;;;5053178;28;20170;-50
2022/07/22 01:00:17;;;;;;;13.65;4.40;;;15.50;92.00;;;;;;5070361;28;20028;-49
2022/07/22 01:02:44;;;;;;;12.90;4.25;;;15.50;92.10;;;;;;5052683;28;20465;-51
2022/07/22 01:05:11;;;;;;;14.23;4.20;;;15.50;92.00;;;;;;5070151;28;20357;-49
2022/07/22 01:07:41;;;;;;;12.35;4.25;;;15.50;91.90;;;;;;5052728;28;20025;-48
2022/07/22 01:10:07;;;;;;;16.38;6.20;;;15.50;91.90;;;;;;5070228;28;20517;-50
2022/07/22 01:12:37;;;;;;;17.77;5.15;;;15.60;91.80;;;;;;5070302;28;20434;-48
2022/07/22 01:15:05;;;;;;;12.73;4.75;;;15.50;91.80;;;;;;5052336;28;20032;-50
2022/07/22 01:17:31;;;;;;;14.18;4.40;;;15.60;91.80;;;;;;5052296;28;20446;-48
2022/07/22 01:20:06;;;;;;;15.57;4.53;;;15.60;91.70;;;;;;5070129;28;20125;-47
2022/07/22 01:22:33;;;;;;;11.07;4.45;;;15.60;91.70;;;;;;5070016;28;20031;-48
2022/07/22 01:25:00;;;;;;;17.55;5.18;;;15.60;91.80;;;;;;5070110;28;20024;-47
2022/07/22 01:27:29;;;;;;;8.50;4.15;;;15.60;91.70;;;;;;5070236;28;20086;-48
2022/07/22 01:29:58;;;;;;;13.37;4.37;;;15.60;91.60;;;;;;5070220;28;20025;-47
2022/07/22 01:32:25;;;;;;;15.82;5.07;;;15.70;91.70;;;;;;5069748;28;20718;-48
2022/07/22 01:34:52;;;;;;;15.85;4.68;;;15.60;91.60;;;;;;5070296;28;20033;-49
2022/07/22 01:37:22;;;;;;;14.27;5.03;;;15.70;91.60;;;;;;5070328;28;20020;-47
2022/07/22 01:39:49;;;;;;;22.35;4.68;;;15.60;91.50;;;;;;5070207;28;20027;-47
2022/07/22 01:42:15;;;;;;;12.05;3.85;;;15.70;91.50;;;;;;5061503;28;20079;-47
2022/07/22 01:44:42;;;;;;;18.10;4.88;;;15.70;91.50;;;;;;5050206;28;20374;-48
2022/07/22 01:47:10;;;;;;;11.55;4.25;;;15.60;91.20;;;;;;5048972;28;20171;-51
2022/07/22 01:49:37;;;;;;;14.05;4.03;;;15.60;91.20;;;;;;5032313;28;20032;-47
2022/07/22 01:52:05;;;;;;;15.07;4.05;;;15.60;91.20;;;;;;5065818;28;20021;-46
2022/07/22 01:54:31;;;;;;;13.70;3.30;;;15.60;91.00;;;;;;5050265;28;20029;-47
2022/07/22 01:56:58;;;;;;;12.93;3.47;;;15.60;90.80;;;;;;5049293;28;20091;-47
2022/07/22 01:59:25;;;;;;;7.43;2.92;;;15.50;90.70;;;;;;5031965;28;20124;-46
2022/07/22 02:01:50;;;;;;;10.95;2.85;;;15.50;90.50;;;;;;5049458;28;20032;-46
2022/07/22 02:04:17;;;;;;;13.18;3.35;;;15.40;90.40;;;;;;5049496;28;20358;-47
2022/07/22 02:06:44;;;;;;;10.32;3.00;;;15.50;90.50;;;;;;5048211;28;20078;-47
2022/07/22 02:09:11;;;;;;;16.52;3.10;;;15.50;90.50;;;;;;5048827;28;20025;-46
2022/07/22 02:11:38;;;;;;;8.88;3.35;;;15.60;90.50;;;;;;5049467;28;20064;-47
2022/07/22 02:14:04;;;;;;;10.15;3.40;;;15.50;90.40;;;;;;5047917;28;20450;-46
2022/07/22 02:16:31;;;;;;;11.20;3.22;;;15.50;90.20;;;;;;5049453;28;20044;-46
2022/07/22 02:19:00;;;;;;;17.35;4.78;;;15.50;90.20;;;;;;5049327;28;20340;-46
2022/07/22 02:21:27;;;;;;;19.58;4.03;;;15.50;90.20;;;;;;5049101;28;20665;-45
2022/07/22 02:23:57;;;;;;;13.82;4.00;;;15.50;90.10;;;;;;5064675;28;20049;-45
2022/07/22 02:26:23;;;;;;;14.35;4.97;;;15.50;90.10;;;;;;5064374;28;20027;-45
2022/07/22 02:28:50;;;;;;;17.15;4.43;;;15.50;90.00;;;;;;5048967;28;20124;-45
2022/07/22 02:31:16;;;;;;;13.48;5.57;;;15.50;90.00;;;;;;5049172;28;20024;-45
2022/07/22 02:33:43;;;;;;;16.85;5.57;;;15.50;90.00;;;;;;5048836;28;20086;-46
2022/07/22 02:36:10;;;;;;;17.98;5.35;;;15.50;90.10;;;;;;5049096;28;20079;-47
2022/07/22 02:38:37;;;;;;;18.13;5.30;;;15.50;89.90;;;;;;5048793;28;20033;-45
2022/07/22 02:41:03;;;;;;;17.15;6.32;;;15.50;89.90;;;;;;5048452;28;20040;-45
2022/07/22 02:43:36;;;;;;;18.92;6.22;;;15.40;89.70;;;;;;5049321;28;20028;-45
2022/07/22 02:46:03;;;;;;;14.60;4.05;;;15.40;89.50;;;;;;5049172;28;20382;-45
2022/07/22 02:48:29;;;;;;;17.65;6.28;;;15.40;89.50;;;;;;5049643;28;20036;-45
2022/07/22 02:50:56;;;;;;;12.88;4.95;;;15.40;89.50;;;;;;5049029;28;20039;-45
2022/07/22 02:53:23;;;;;;;13.90;4.18;;;15.40;89.30;;;;;;5049415;28;20350;-45
2022/07/22 02:55:49;;;;;;;12.18;3.92;;;15.40;89.10;;;;;;5065128;28;20103;-45
2022/07/22 02:58:18;;;;;;;14.73;5.55;;;15.40;89.00;;;;;;5031722;28;20029;-44
2022/07/22 03:00:46;;;;;;;15.93;5.22;;;15.40;88.90;;;;;;5053434;28;20545;-43
2022/07/22 03:03:12;;;;;;;13.52;4.55;;;15.30;88.90;;;;;;5052301;28;20033;-45
2022/07/22 03:05:38;;;;;;;14.98;4.35;;;15.30;88.80;;;;;;5053189;28;20116;-43
2022/07/22 03:08:05;;;;;;;13.55;4.72;;;15.30;88.80;;;;;;5053635;28;20111;-44
2022/07/22 03:10:32;;;;;;;14.20;4.78;;;15.30;88.70;;;;;;5052458;28;20094;-43
2022/07/22 03:12:59;;;;;;;16.70;4.65;;;15.30;88.70;;;;;;5053031;28;20083;-44
2022/07/22 03:15:28;;;;;;;10.18;4.25;;;15.30;88.50;;;;;;5053193;28;20111;-43
2022/07/22 03:17:55;;;;;;;14.38;4.20;;;15.30;88.50;;;;;;5053412;28;20029;-44
2022/07/22 03:20:22;;;;;;;13.88;4.63;;;15.30;88.60;;;;;;5053011;28;20033;-44
2022/07/22 03:22:49;;;;;;;12.02;4.68;;;15.30;88.40;;;;;;5053185;28;20062;-44
2022/07/22 03:25:16;;;;;;;14.43;4.78;;;15.20;88.30;;;;;;5053401;28;20334;-44
2022/07/22 03:27:42;;;;;;;14.15;4.53;;;15.20;88.30;;;;;;5053009;28;20032;-44
2022/07/22 03:30:09;;;;;;;12.70;4.03;;;15.20;88.20;;;;;;5051745;28;20029;-44
2022/07/22 03:32:35;;;;;;;12.27;3.83;;;15.20;88.30;;;;;;5051651;28;20024;-43
2022/07/22 03:35:03;;;;;;;16.35;4.70;;;15.20;88.30;;;;;;5035421;28;20028;-44
2022/07/22 03:37:30;;;;;;;11.13;3.47;;;15.30;88.00;;;;;;5051971;28;20109;-43
2022/07/22 03:39:58;;;;;;;12.23;4.07;;;15.30;88.10;;;;;;5052815;28;20044;-44
2022/07/22 03:42:27;;;;;;;12.13;4.43;;;15.30;88.20;;;;;;5052671;28;20029;-44
2022/07/22 03:44:55;;;;;;;13.98;4.07;;;15.30;87.90;;;;;;5052482;28;20036;-44
2022/07/22 03:47:22;;;;;;;12.63;3.13;;;15.30;87.80;;;;;;5052465;28;20049;-44
2022/07/22 03:49:49;;;;;;;8.93;2.95;;;15.30;87.70;;;;;;5052645;28;20430;-44
2022/07/22 03:52:15;;;;;;;13.13;3.15;;;15.30;87.50;;;;;;5034908;28;20093;-44
2022/07/22 03:54:43;;;;;;;8.95;2.92;;;15.30;87.30;;;;;;5052411;28;20047;-44
2022/07/22 03:57:11;;;;;;;10.35;3.50;;;15.40;87.70;;;;;;5051525;28;20385;-44
2022/07/22 03:59:38;;;;;;;11.60;3.80;;;15.40;87.40;;;;;;5052414;28;20417;-44
2022/07/22 04:02:05;;;;;;;11.35;3.20;;;15.30;87.20;;;;;;5052329;28;20024;-43
2022/07/22 04:04:32;;;;;;;7.85;2.95;;;15.30;87.10;;;;;;5052176;28;20033;-44
2022/07/22 04:06:59;;;;;;;8.07;2.70;;;15.30;87.00;;;;;;5051747;28;20029;-44
2022/07/22 04:09:26;;;;;;;7.90;2.90;;;15.40;87.00;;;;;;5051486;28;20086;-44
2022/07/22 04:11:52;;;;;;;5.57;2.90;;;15.40;87.20;;;;;;5051041;28;20086;-44
2022/07/22 04:14:20;;;;;;;8.02;2.97;;;15.40;87.20;;;;;;5050989;28;20087;-44
2022/07/22 04:16:47;;;;;;;9.55;3.08;;;15.40;87.10;;;;;;5068073;28;20457;-44
2022/07/22 04:19:15;;;;;;;16.75;3.65;;;15.40;87.10;;;;;;5052292;28;20032;-44
2022/07/22 04:21:42;;;;;;;8.77;3.53;;;15.40;87.20;;;;;;5052142;28;20523;-44
2022/07/22 04:24:09;;;;;;;15.75;3.20;;;15.40;87.00;;;;;;5051673;28;20036;-44
2022/07/22 04:26:38;;;;;;;10.00;2.85;;;15.50;86.70;;;;;;5050968;28;20045;-44
2022/07/22 04:29:06;;;;;;;8.13;2.90;;;15.40;86.70;;;;;;5050998;28;20507;-45
2022/07/22 04:31:32;;;;;;;9.00;3.35;;;15.40;86.80;;;;;;5033857;28;20090;-45
2022/07/22 04:33:59;;;;;;;10.43;3.08;;;15.40;86.20;;;;;;5051438;28;20025;-46
2022/07/22 04:36:26;;;;;;;8.70;2.38;;;15.40;86.10;;;;;;5051818;28;20021;-45
2022/07/22 04:38:53;;;;;;;8.18;2.78;;;15.40;86.00;;;;;;5051622;28;20454;-45
2022/07/22 04:41:18;;;;;;;11.10;3.70;;;15.40;86.20;;;;;;5051911;28;20060;-44
2022/07/22 04:43:44;;;;;;;7.13;2.42;;;15.50;86.00;;;;;;5051249;28;20435;-44
2022/07/22 04:46:11;;;;;;;9.63;2.60;;;15.40;85.70;;;;;;5051315;28;20057;-44
2022/07/22 04:48:38;;;;;;;12.93;3.05;;;15.50;86.00;;;;;;5050616;28;20445;-45
2022/07/22 04:51:05;;;;;;;13.10;3.25;;;15.60;85.80;;;;;;5051275;28;20044;-46
2022/07/22 04:53:32;;;;;;;10.05;3.50;;;15.60;85.60;;;;;;5050843;28;20039;-45
2022/07/22 04:55:59;;;;;;;13.45;2.75;;;15.60;85.70;;;;;;5050828;28;20032;-45
2022/07/22 04:58:25;;;;;;;17.02;2.90;;;15.60;85.90;;;;;;5050119;28;20025;-47
2022/07/22 05:00:52;;;;;;;14.70;3.55;;;15.70;86.10;;;;;;5050923;28;20032;-45
2022/07/22 05:03:18;;;;;;;18.45;3.67;;;15.60;86.00;;;;;;5050631;28;20032;-45
2022/07/22 05:05:45;;;;;;;10.23;2.83;;;15.60;86.00;;;;;;5050620;28;20033;-47
2022/07/22 05:08:12;;;;;;;10.48;3.30;;;15.60;86.10;;;;;;5050256;28;20365;-45
2022/07/22 05:10:39;;;;;;;11.55;3.72;;;15.60;86.00;;;;;;5050729;28;20028;-44
2022/07/22 05:13:05;;;;;;;7.45;2.83;;;15.60;85.60;;;;;;5050820;28;20064;-46
2022/07/22 05:15:31;;;;;;;7.57;2.60;;;15.70;85.70;;;;;;5049944;28;20060;-46
2022/07/22 05:17:57;;;;;;;10.20;2.42;;;15.60;85.20;;;;;;5050092;28;20041;-46
2022/07/22 05:20:23;;;;;;;8.65;2.15;;;15.60;84.80;;;;;;5050841;28;20082;-45
2022/07/22 05:22:49;;;;;;;7.82;1.92;;;15.60;84.40;;;;;;5032939;28;20025;-45
2022/07/22 05:25:16;;;;;;;10.82;2.15;;;15.60;84.10;;;;;;5050664;28;20021;-48
2022/07/22 05:27:56;;;;;;;9.85;2.17;;;15.50;82.80;;;;;;5050943;28;20017;-46
2022/07/22 05:30:23;;;;;;;11.50;3.13;;;15.50;83.40;;;;;;5065913;28;20025;-46
2022/07/22 05:32:53;;;;;;;7.88;2.45;;;15.50;83.30;;;;;;5032904;28;20030;-46
2022/07/22 05:35:19;;;;;;;9.13;2.70;;;15.60;83.40;;;;;;5049546;28;20025;-46
2022/07/22 05:37:49;;;;;;;12.68;2.35;;;15.60;82.80;;;;;;5050536;28;20457;-47
2022/07/22 05:40:16;;;;;;;6.18;2.08;;;15.60;82.60;;;;;;5050378;28;20434;-45
2022/07/22 05:42:43;;;;;;;7.97;2.22;;;15.60;82.70;;;;;;5050035;28;20151;-47
2022/07/22 05:45:10;;;;;;;8.15;2.65;;;15.70;82.80;;;;;;5050194;28;20424;-46
2022/07/22 05:47:36;;;;;;;8.77;2.40;;;15.70;81.90;;;;;;5050011;28;20049;-46
2022/07/22 05:50:03;;;;;;;6.75;1.92;;;15.80;82.10;;;;;;5050181;28;20477;-45
2022/07/22 05:52:30;;;;;;;7.38;2.05;;;15.80;82.10;;;;;;5065742;28;20029;-46
2022/07/22 05:55:00;;;;;;;5.80;2.08;;;15.90;81.70;;;;;;5032322;28;20032;-46
2022/07/22 05:57:27;;;;;;;6.25;2.13;;;15.90;81.70;;;;;;5049623;28;20044;-46
2022/07/22 05:59:56;;;;;;;8.48;1.60;;;15.90;82.10;;;;;;5049480;28;20080;-47
2022/07/22 06:02:23;;;;;;;9.85;2.88;;;16.00;81.60;;;;;;5049668;28;20024;-46
2022/07/22 06:04:50;;;;;;;6.50;1.80;;;16.00;81.40;;;;;;5048471;28;20061;-46
2022/07/22 06:07:17;;;;;;;7.22;2.58;;;16.00;82.00;;;;;;5049080;28;20558;-46
2022/07/22 06:09:44;;;;;;;6.63;2.03;;;16.00;81.70;;;;;;5049103;28;20017;-47
2022/07/22 06:12:13;;;;;;;7.70;1.90;;;16.00;80.90;;;;;;5049167;28;20032;-46
2022/07/22 06:14:38;;;;;;;10.63;2.40;;;16.00;81.10;;;;;;5031556;28;20454;-46
2022/07/22 06:17:05;;;;;;;8.80;2.10;;;16.00;80.40;;;;;;5049276;28;20044;-47
2022/07/22 06:19:32;;;;;;;6.00;1.85;;;16.10;80.20;;;;;;5049748;28;20032;-46
2022/07/22 06:21:58;;;;;;;5.18;1.85;;;16.10;79.70;;;;;;5049785;28;20029;-46
2022/07/22 06:24:25;;;;;;;10.57;2.35;;;16.10;79.50;;;;;;5048564;28;20464;-46
2022/07/22 06:26:52;;;;;;;4.72;1.75;;;16.20;79.70;;;;;;5032306;28;20025;-47
2022/07/22 06:29:19;;;;;;;7.22;1.30;;;16.30;79.30;;;;;;5049545;28;20035;-47
2022/07/22 06:31:49;;;;;;;7.38;1.85;;;16.30;78.30;;;;;;5049695;28;20434;-50
2022/07/22 06:34:18;;;;;;;4.63;1.55;;;16.30;78.20;;;;;;5048989;28;20029;-49
2022/07/22 06:36:45;;;;;;;6.82;2.03;;;16.30;78.10;;;;;;5049657;28;20035;-47
2022/07/22 06:39:14;;;;;;;6.00;1.95;;;16.40;78.10;;;;;;5049399;28;20033;-48
2022/07/22 06:41:42;;;;;;;5.50;1.45;;;16.40;77.90;;;;;;5049715;28;20094;-47
2022/07/22 06:44:07;;;;;;;7.05;1.88;;;16.40;77.90;;;;;;5048552;28;20135;-47
2022/07/22 06:46:34;;;;;;;5.03;1.35;;;16.50;77.90;;;;;;5049252;28;20138;-46
2022/07/22 06:49:01;;;;;;;6.32;1.92;;;16.50;78.60;;;;;;5065263;28;20023;-48
2022/07/22 06:51:28;;;;;;;8.90;2.25;;;16.60;78.60;;;;;;5049708;28;20354;-48
2022/07/22 06:53:55;;;;;;;5.72;1.67;;;16.60;79.20;;;;;;5049144;28;20033;-48
2022/07/22 06:56:24;;;;;;;9.43;1.92;;;16.50;79.00;;;;;;5049206;28;20064;-47
2022/07/22 06:58:51;;;;;;;7.57;2.70;;;16.60;79.70;;;;;;5049446;28;20053;-49
2022/07/22 07:01:18;;;;;;;6.32;1.70;;;16.50;80.00;;;;;;5031546;28;20456;-47
2022/07/22 07:03:45;;;;;;;7.22;1.75;;;16.50;79.60;;;;;;5049070;28;20037;-47
2022/07/22 07:06:12;;;;;;;8.40;1.83;;;16.50;80.20;;;;;;5048231;28;20029;-50
2022/07/22 07:08:42;;;;;;;10.95;3.00;;;16.40;80.00;;;;;;5049228;28;20128;-51
2022/07/22 07:11:09;;;;;;;;;;;16.50;80.50;;;;;;5048290;28;20359;-48
2022/07/22 07:13:36;;;;;;;6.28;1.95;;;16.60;80.10;;;;;;5049157;28;19915;-46
2022/07/22 07:16:03;;;;;;;9.20;2.70;;;16.60;79.50;;;;;;5031472;28;20401;-48
2022/07/22 07:18:32;;;;;;;8.05;2.05;;;16.70;80.20;;;;;;5049171;28;20044;-48
2022/07/22 07:20:59;;;;;;;8.73;2.95;;;16.80;79.50;;;;;;5049391;28;20033;-48
2022/07/22 07:23:29;;;;;;;6.82;2.10;;;16.90;79.60;;;;;;5048958;28;20025;-51
2022/07/22 07:25:58;;;;;;;7.95;2.10;;;16.90;79.30;;;;;;5049094;28;20096;-49
2022/07/22 07:28:25;;;;;;;10.35;2.75;;;16.90;79.20;;;;;;5049231;28;20043;-49
2022/07/22 07:30:56;;;;;;;7.35;2.00;;;17.10;79.40;;;;;;5048802;28;20052;-47
2022/07/22 07:33:22;;;;;;;6.10;1.58;;;17.30;78.70;;;;;;5048881;28;20036;-49
2022/07/22 07:35:48;;;;;;;15.10;3.05;;;17.40;78.60;;;;;;5048223;28;20033;-47
2022/07/22 07:38:15;;;;;;;7.60;2.03;;;17.40;78.30;;;;;;5048812;28;20021;-50
2022/07/22 07:40:42;;;;;;;6.65;2.33;;;17.50;78.30;;;;;;5048989;28;20024;-48
2022/07/22 07:43:09;;;;;;;8.82;1.58;;;17.50;78.10;;;;;;5047621;28;20033;-50
2022/07/22 07:45:35;;;;;;;7.78;1.98;;;17.50;77.90;;;;;;5050670;28;20029;-48
2022/07/22 07:48:01;;;;;;;6.93;1.83;;;17.50;77.30;;;;;;5052650;28;20040;-46
2022/07/22 07:50:26;;;;;;;7.65;2.60;;;17.40;77.90;;;;;;5035103;28;20033;-47
2022/07/22 07:52:53;;;;;;;9.82;2.35;;;17.40;78.30;;;;;;5052603;28;20048;-48
2022/07/22 07:55:21;;;;;;;9.18;1.90;;;17.50;77.90;;;;;;5052357;28;20462;-47
2022/07/22 07:57:53;;;;;;;7.25;2.47;;;17.50;77.40;;;;;;5051475;28;20040;-47
2022/07/22 08:00:28;;;;;;;6.03;2.05;;;17.50;78.00;;;;;;5052489;28;20179;-49
2022/07/22 08:02:55;;;;;;;9.13;1.65;;;17.50;77.80;;;;;;5052682;28;20025;-51
2022/07/22 08:05:22;;;;;;;7.93;1.77;;;17.40;78.10;;;;;;5052112;28;20021;-47
2022/07/22 08:07:49;;;;;;;6.28;2.30;;;17.40;77.70;;;;;;5052165;28;20119;-50
2022/07/22 08:10:17;;;;;;;4.78;1.67;;;17.40;77.40;;;;;;5052357;28;20021;-47
2022/07/22 08:12:44;;;;;;;8.98;1.90;;;17.30;76.20;;;;;;5052229;28;20032;-53
2022/07/22 08:15:11;;;;;;;4.75;1.70;;;17.40;76.30;;;;;;5051059;28;20029;-47
2022/07/22 08:17:38;;;;;;;5.93;1.60;;;17.40;74.60;;;;;;5052096;28;20033;-51
2022/07/22 08:20:06;;;;;;;5.65;1.83;;;17.40;74.40;;;;;;5051035;28;20021;-47
2022/07/22 08:22:33;;;;;;;9.00;2.05;;;17.40;74.40;;;;;;5051854;28;20061;-47
2022/07/22 08:25:05;;;;;;;6.47;2.17;;;17.60;74.80;;;;;;5050879;28;20171;-48
2022/07/22 08:27:31;;;;;;;4.05;1.55;;;17.70;73.30;;;;;;5051528;28;20056;-49
2022/07/22 08:30:04;;;;;;;6.50;1.35;;;17.70;72.80;;;;;;5051874;28;20102;-47
2022/07/22 08:32:30;;;;;;;4.53;1.40;;;17.90;72.60;;;;;;5051811;28;20020;-47
2022/07/22 08:34:57;;;;;;;6.10;1.60;;;17.90;71.70;;;;;;5051794;28;20615;-48
2022/07/22 08:37:24;;;;;;;5.82;1.55;;;17.90;71.50;;;;;;5051758;28;20028;-49
2022/07/22 08:39:53;;;;;;;8.75;1.90;;;17.90;71.90;;;;;;5051815;28;20040;-48
2022/07/22 08:42:22;;;;;;;6.07;1.40;;;18.10;72.30;;;;;;5051760;28;20390;-47
2022/07/22 08:44:52;;;;;;;5.22;1.23;;;18.00;70.90;;;;;;5033894;28;20057;-52
2022/07/22 08:47:22;;;;;;;;;;;17.90;71.30;;;;;;5052022;28;20067;-47
2022/07/22 08:49:51;;;;;;;9.55;1.80;;;17.90;71.00;;;;;;5051560;28;20337;-47
2022/07/22 08:52:18;;;;;;;7.63;1.60;;;17.80;71.30;;;;;;5033811;28;20037;-54
2022/07/22 08:54:45;;;;;;;13.75;1.92;;;17.90;72.10;;;;;;5051330;28;20025;-46
2022/07/22 08:57:13;;;;;;;5.45;1.63;;;18.00;71.30;;;;;;5050758;28;20041;-47
2022/07/22 08:59:54;;;;;;;3.30;1.33;;;18.00;70.40;;;;;;5051349;28;20021;-47
2022/07/22 09:02:25;;;;;;;6.47;1.67;;;18.20;70.60;;;;;;5051470;28;20034;-49
2022/07/22 09:05:04;;;;;;;9.82;1.90;;;18.10;68.70;;;;;;5051041;28;20029;-48
2022/07/22 09:07:48;;;;;;;5.57;1.13;;;18.00;68.50;;;;;;5050972;28;20033;-50
2022/07/22 09:10:19;;;;;;;3.75;1.30;;;18.10;69.50;;;;;;5051045;28;20028;-51
2022/07/22 09:12:59;;;;;;;4.85;1.55;;;18.20;69.20;;;;;;5066590;28;20071;-48
2022/07/22 09:15:49;;;;;;;4.63;1.50;;;18.20;70.00;;;;;;5033390;28;20040;-52
2022/07/22 09:18:16;;;;;;;4.07;1.17;;;18.20;69.60;;;;;;5051093;28;20033;-52
2022/07/22 09:20:46;;;;;;;7.75;1.58;;;18.00;69.70;;;;;;5050976;28;20108;-48
2022/07/22 09:23:17;;;;;;;4.93;1.20;;;18.10;69.40;;;;;;5050185;28;20029;-51
2022/07/22 09:25:44;;;;;;;4.00;0.95;;;18.40;69.00;;;;;;5050507;28;20025;-47
2022/07/22 09:28:12;;;;;;;4.38;1.60;;;18.50;67.70;;;;;;5050777;28;20021;-48
2022/07/22 09:30:51;;;;;;;4.90;0.77;;;18.60;67.90;;;;;;5050636;28;20431;-50
2022/07/22 09:33:18;;;;;;;5.28;1.20;;;18.70;68.10;;;;;;5050692;28;20028;-48
2022/07/22 09:35:47;;;;;;;5.10;1.08;;;18.70;67.00;;;;;;5032848;28;20529;-47
2022/07/22 09:38:16;;;;;;;5.28;1.42;;;18.70;66.00;;;;;;5033026;28;20378;-47
2022/07/22 09:40:45;;;;;;;3.70;0.80;;;18.90;66.90;;;;;;5049889;28;20029;-50
2022/07/22 09:43:12;;;;;;;4.18;1.10;;;18.90;65.80;;;;;;5050445;28;20025;-47
2022/07/22 09:45:49;;;;;;;7.40;1.50;;;19.00;65.10;;;;;;5032784;28;20044;-51
2022/07/22 09:48:18;;;;;;;3.42;0.98;;;19.40;66.70;;;;;;5050292;28;20389;-51
2022/07/22 09:50:46;;;;;;;7.50;1.85;;;19.40;63.30;;;;;;5065866;28;20021;-51
2022/07/22 09:53:14;;;;;;;4.28;1.20;;;19.40;64.20;;;;;;5050512;28;20033;-50
2022/07/22 09:55:41;;;;;;;5.30;1.42;;;19.60;62.80;;;;;;5065723;28;20032;-47
2022/07/22 09:58:08;;;;;;;5.18;1.05;;;19.50;63.10;;;;;;5050504;28;20338;-51
2022/07/22 10:00:36;;;;;;;4.28;1.27;;;19.50;64.60;;;;;;5050100;28;20120;-48
2022/07/22 10:03:06;;;;;;;3.67;0.88;;;19.40;63.20;;;;;;5050052;28;20029;-48
2022/07/22 10:05:37;;;;;;;4.35;0.98;;;19.20;62.90;;;;;;5048792;28;20017;-48
2022/07/22 10:08:05;;;;;;;4.07;0.98;;;19.40;65.50;;;;;;5049466;28;20032;-48
2022/07/22 10:10:37;;;;;;;6.38;1.45;;;19.30;64.00;;;;;;5049669;28;20025;-49
2022/07/22 10:13:06;;;;;;;6.55;2.13;;;19.20;65.10;;;;;;5049820;28;20020;-47
2022/07/22 10:15:35;;;;;;;6.05;1.90;;;19.10;66.40;;;;;;5049974;28;20036;-48
2022/07/22 10:18:23;;;;;;;8.90;1.67;;;19.20;67.20;;;;;;5049904;28;20037;-48
2022/07/22 10:21:01;;;;;;;6.13;1.55;;;19.00;67.10;;;;;;5049724;28;20039;-49
2022/07/22 10:23:28;;;;;;;4.22;1.50;;;19.00;67.10;;;;;;5049616;28;20043;-47
2022/07/22 10:25:59;;;;;;;6.72;1.35;;;19.00;68.40;;;;;;5049466;28;20031;-50
2022/07/22 10:28:27;;;;;;;4.70;1.20;;;18.90;68.10;;;;;;5050033;28;20028;-53
2022/07/22 10:31:15;;;;;;;5.03;1.55;;;18.90;68.80;;;;;;5049624;28;20021;-48
2022/07/22 10:33:45;;;;;;;7.25;1.23;;;18.90;67.90;;;;;;5049384;28;20040;-51
2022/07/22 10:36:13;;;;;;;4.35;2.13;;;18.80;68.50;;;;;;5049321;28;20028;-53
2022/07/22 10:39:12;;;;;;;6.43;1.08;;;18.90;67.40;;;;;;5049885;28;20033;-49
2022/07/22 10:41:47;;;;;;;3.75;1.00;;;18.80;67.70;;;;;;5049042;28;20040;-50
2022/07/22 10:44:34;;;;;;;6.63;2.00;;;18.90;67.70;;;;;;5049420;28;20125;-47
2022/07/22 10:47:02;;;;;;;5.75;1.17;;;18.90;66.20;;;;;;5049117;28;20040;-47
2022/07/22 10:49:28;;;;;;;6.72;1.25;;;18.80;66.10;;;;;;5049275;28;20032;-47
2022/07/22 10:52:08;;;;;;;6.15;1.00;;;18.60;65.90;;;;;;5049164;28;20025;-47
2022/07/22 10:55:14;;;;;;;4.05;0.90;;;18.70;67.70;;;;;;5048821;28;20457;-48
2022/07/22 10:57:41;;;;;;;6.65;1.35;;;18.90;66.90;;;;;;5048057;28;20040;-49
2022/07/22 11:00:08;;;;;;;3.60;0.93;;;18.60;67.70;;;;;;5048295;28;20037;-47
2022/07/22 11:02:37;;;;;;;4.90;1.70;;;18.60;67.40;;;;;;5047972;28;20048;-49
2022/07/22 11:05:05;;;;;;;4.45;1.02;;;18.50;66.60;;;;;;5049344;28;20029;-47
2022/07/22 11:07:34;;;;;;;8.30;1.48;;;18.40;68.10;;;;;;5048889;28;20024;-47
2022/07/22 11:10:15;;;;;;;4.78;1.15;;;18.40;68.30;;;;;;5049172;28;20423;-47
2022/07/22 11:12:42;;;;;;;5.53;1.10;;;18.40;68.20;;;;;;5049001;28;20037;-49
2022/07/22 11:15:10;;;;;;;5.63;1.90;;;18.40;69.20;;;;;;5049557;28;20052;-46
2022/07/22 11:17:38;;;;;;;5.57;1.48;;;18.50;69.70;;;;;;5049204;28;20025;-47
2022/07/22 11:20:07;;;;;;;4.70;1.20;;;18.70;69.80;;;;;;5050565;28;20064;-47
2022/07/22 11:22:36;;;;;;;6.50;1.40;;;18.90;68.20;;;;;;5053117;28;20082;-46
2022/07/22 11:25:09;;;;;;;9.48;1.67;;;18.90;68.50;;;;;;5052903;28;20046;-48
2022/07/22 11:27:35;;;;;;;5.75;1.25;;;19.10;67.60;;;;;;5035460;28;20025;-46
2022/07/22 11:30:03;;;;;;;6.13;1.15;;;19.20;67.10;;;;;;5053065;28;20032;-48
2022/07/22 11:32:32;;;;;;;4.10;1.13;;;19.20;67.80;;;;;;5052925;28;20048;-46
2022/07/22 11:34:59;;;;;;;4.35;1.17;;;19.10;67.70;;;;;;5052849;28;20021;-47
2022/07/22 11:37:28;;;;;;;8.85;1.50;;;19.00;69.00;;;;;;5052771;28;20013;-46
2022/07/22 11:40:06;;;;;;;5.07;1.15;;;18.90;68.60;;;;;;5052965;28;20402;-46
2022/07/22 11:42:33;;;;;;;7.93;1.63;;;18.90;69.30;;;;;;5035240;28;20028;-47
2022/07/22 11:45:00;;;;;;;4.97;1.38;;;18.90;70.00;;;;;;5052630;28;20608;-48
2022/07/22 11:47:26;;;;;;;6.18;1.63;;;19.10;69.30;;;;;;5034358;28;20462;-47
2022/07/22 11:49:53;;;;;;;6.60;1.00;;;19.10;67.70;;;;;;5035037;28;20096;-46
2022/07/22 11:52:20;;;;;;;6.25;1.08;;;19.20;68.20;;;;;;5051927;28;20025;-46
2022/07/22 11:54:50;;;;;;;5.80;1.25;;;19.30;69.00;;;;;;5050874;28;20061;-47
2022/07/22 11:57:20;;;;;;;5.30;1.55;;;19.40;68.80;;;;;;5051805;28;20023;-47
2022/07/22 11:59:47;;;;;;;6.65;1.40;;;19.10;68.40;;;;;;5051919;28;20064;-47
2022/07/22 12:02:16;;;;;;;6.65;1.50;;;19.20;68.60;;;;;;5050904;28;20112;-50
2022/07/22 12:04:46;;;;;;;5.88;1.73;;;19.10;67.50;;;;;;5051920;28;20040;-47
2022/07/22 12:07:12;;;;;;;;;;;19.00;68.40;;;;;;5052068;28;20405;-47
2022/07/22 12:09:42;;;;;;;5.07;1.20;;;19.00;68.80;;;;;;5051569;28;19905;-46
2022/07/22 12:12:09;;;;;;;3.08;0.95;;;19.20;68.40;;;;;;5051618;28;20107;-47
2022/07/22 12:14:36;;;;;;;7.93;1.25;;;19.00;68.80;;;;;;5051665;28;20044;-47
2022/07/22 12:17:07;;;;;;;7.43;1.90;;;19.00;68.80;;;;;;5051995;28;20040;-46
2022/07/22 12:19:35;;;;;;;8.57;1.20;;;19.00;68.40;;;;;;5052037;28;20518;-47
2022/07/22 12:22:08;;;;;;;5.47;1.35;;;19.10;68.30;;;;;;5052032;28;20113;-47
2022/07/22 12:25:01;;;;;;;4.03;1.17;;;19.30;68.20;;;;;;5052075;28;20350;-47
2022/07/22 12:27:28;;;;;;;7.45;1.75;;;19.40;68.10;;;;;;5051815;28;20025;-47
2022/07/22 12:29:54;;;;;;;5.40;1.05;;;19.70;67.70;;;;;;5050905;28;20103;-47
2022/07/22 12:32:46;;;;;;;4.78;1.58;;;19.90;67.00;;;;;;5050833;28;20033;-47
2022/07/22 12:35:14;;;;;;;3.88;1.27;;;19.90;63.80;;;;;;5051727;28;20025;-47
2022/07/22 12:37:45;;;;;;;5.75;1.13;;;19.90;63.60;;;;;;5050612;28;20079;-47
2022/07/22 12:40:24;;;;;;;6.38;1.15;;;20.00;64.60;;;;;;5050548;28;20056;-49
2022/07/22 12:43:09;;;;;;;5.82;1.67;;;20.10;63.50;;;;;;5051716;28;20401;-49
2022/07/22 12:45:36;;;;;;;5.78;1.20;;;20.10;64.50;;;;;;5051563;28;20350;-47
2022/07/22 12:48:27;;;;;;;8.15;1.23;;;20.20;63.90;;;;;;5051667;28;20017;-50
2022/07/22 12:51:11;;;;;;;11.07;2.00;;;20.30;64.90;;;;;;5051642;28;20345;-47